createdAt,value
2023-02-08T00:00:20.780Z,-0.79
2023-02-08T00:05:23.564Z,-0.79
2023-02-08T00:10:26.300Z,-0.84
2023-02-08T00:15:30.488Z,-0.87
2023-02-08T00:20:33.242Z,-0.87
2023-02-08T00:25:37.030Z,-0.86
2023-02-08T00:30:42.144Z,-0.82
2023-02-08T00:35:45.211Z,-0.76
2023-02-08T00:40:47.971Z,-0.78
2023-02-08T00:45:56.534Z,-0.79
2023-02-08T00:51:02.310Z,-0.78
2023-02-08T00:56:05.750Z,-0.82
2023-02-08T01:01:10.719Z,-0.96
2023-02-08T01:06:16.631Z,-1.01
2023-02-08T01:11:25.085Z,-1.01
2023-02-08T01:16:31.567Z,-1.06
2023-02-08T01:21:38.595Z,-1.12
2023-02-08T01:26:41.418Z,-1.29
2023-02-08T01:31:46.380Z,-1.30
2023-02-08T01:36:49.322Z,-1.30
2023-02-08T01:41:52.096Z,-1.42
2023-02-08T01:46:56.272Z,-1.26
2023-02-08T01:52:02.650Z,-1.23
2023-02-08T01:57:06.027Z,-1.17
2023-02-08T02:02:14.654Z,-1.17
2023-02-08T02:07:19.172Z,-1.16
2023-02-08T02:12:22.641Z,-1.18
2023-02-08T02:17:28.019Z,-1.21
2023-02-08T02:22:59.689Z,-1.35
2023-02-08T02:28:23.808Z,-1.36
2023-02-08T02:33:55.540Z,-1.44
2023-02-08T02:39:06.722Z,-1.56
2023-02-08T02:44:19.778Z,-1.60
2023-02-08T02:49:32.562Z,-1.64
2023-02-08T02:54:40.829Z,-1.67
2023-02-08T02:59:45.285Z,-1.67
2023-02-08T03:04:52.839Z,-1.62
2023-02-08T03:10:06.992Z,-1.61
2023-02-08T03:15:23.559Z,-1.67
2023-02-08T03:20:32.950Z,-1.67
2023-02-08T03:25:45.570Z,-1.70
2023-02-08T03:30:54.875Z,-1.75
2023-02-08T03:36:04.528Z,-1.80
2023-02-08T03:41:11.733Z,-1.87
2023-02-08T03:46:18.583Z,-1.90
2023-02-08T03:51:24.371Z,-1.97
2023-02-08T03:56:36.589Z,-1.99
2023-02-08T04:01:40.919Z,-1.96
2023-02-08T04:06:45.140Z,-1.92
2023-02-08T04:11:47.926Z,-1.95
2023-02-08T04:16:50.772Z,-1.88
2023-02-08T04:21:55.192Z,-1.87
2023-02-08T04:26:57.936Z,-1.84
2023-02-08T04:32:01.081Z,-1.86
2023-02-08T04:37:05.243Z,-1.83
2023-02-08T04:42:08.088Z,-1.87
2023-02-08T04:47:10.895Z,-1.87
2023-02-08T04:52:15.027Z,-1.89
2023-02-08T04:57:17.814Z,-1.91
2023-02-08T05:02:20.684Z,-1.96
2023-02-08T05:07:25.263Z,-2.01
2023-02-08T05:12:28.178Z,-1.95
2023-02-08T05:17:30.952Z,-1.89
2023-02-08T05:22:35.224Z,-1.92
2023-02-08T05:27:38.507Z,-1.93
2023-02-08T05:32:41.287Z,-1.96
2023-02-08T05:37:45.426Z,-2.10
2023-02-08T05:42:48.578Z,-2.09
2023-02-08T05:47:51.365Z,-1.97
2023-02-08T05:52:55.462Z,-2.01
2023-02-08T05:57:58.218Z,-2.08
2023-02-08T06:03:01.009Z,-2.14
2023-02-08T06:08:05.499Z,-2.15
2023-02-08T06:13:08.263Z,-2.07
2023-02-08T06:18:11.746Z,-2.08
2023-02-08T06:23:15.879Z,-2.07
2023-02-08T06:28:18.827Z,-2.19
2023-02-08T06:33:21.586Z,-2.27
2023-02-08T06:38:25.727Z,-2.32
2023-02-08T06:43:28.548Z,-2.35
2023-02-08T06:48:31.367Z,-2.33
2023-02-08T06:53:35.476Z,-2.32
2023-02-08T06:58:38.758Z,-2.31
2023-02-08T07:03:42.612Z,-2.34
2023-02-08T07:08:47.215Z,-2.26
2023-02-08T07:13:51.319Z,-2.02
2023-02-08T07:18:54.090Z,-1.27
2023-02-08T07:23:58.254Z,-0.54
2023-02-08T07:29:01.249Z,0.05
2023-02-08T07:40:34.160Z,0.68
2023-02-08T07:45:38.550Z,0.26
2023-02-08T07:50:41.546Z,0.05
2023-02-08T07:55:47.780Z,0.18
2023-02-08T08:00:50.640Z,0.52
2023-02-08T08:05:55.013Z,0.64
2023-02-08T08:10:59.227Z,0.89
2023-02-08T08:16:01.967Z,1.25
2023-02-08T08:21:05.351Z,1.70
2023-02-08T08:26:13.838Z,2.15
2023-02-08T08:31:18.950Z,2.27
2023-02-08T08:36:21.788Z,2.38
2023-02-08T08:41:27.247Z,2.53
2023-02-08T08:46:30.058Z,2.95
2023-02-08T08:51:35.272Z,2.89
2023-02-08T08:56:39.426Z,2.92
2023-02-08T09:01:42.777Z,2.95
2023-02-08T09:06:45.594Z,3.19
2023-02-08T09:11:50.601Z,3.10
2023-02-08T09:16:53.720Z,3.46
2023-02-08T09:21:57.862Z,3.39
2023-02-08T09:27:02.199Z,3.79
2023-02-08T09:32:05.078Z,4.52
2023-02-08T09:37:07.856Z,4.72
2023-02-08T09:42:29.264Z,4.75
2023-02-08T09:47:36.313Z,5.01
2023-02-08T09:52:45.667Z,5.12
2023-02-08T09:57:53.016Z,5.52
2023-02-08T10:03:00.782Z,5.71
2023-02-08T10:08:03.646Z,5.52
2023-02-08T10:13:25.665Z,6.08
2023-02-08T10:18:45.044Z,6.58
2023-02-08T10:24:06.714Z,6.44
2023-02-08T10:29:26.796Z,6.47
2023-02-08T10:34:43.436Z,7.09
2023-02-08T10:39:47.398Z,7.63
2023-02-08T10:45:18.835Z,8.45
2023-02-08T10:50:35.267Z,9.14
2023-02-08T10:55:44.763Z,9.25
2023-02-08T11:00:51.820Z,9.43
2023-02-08T11:05:55.456Z,10.17
2023-02-08T11:11:00.931Z,11.87
2023-02-08T11:16:07.150Z,12.69
2023-02-08T11:21:21.805Z,13.57
2023-02-08T11:26:33.366Z,14.30
2023-02-08T11:31:37.528Z,14.16
2023-02-08T11:36:47.775Z,13.92
2023-02-08T11:41:55.161Z,14.56
2023-02-08T11:47:02.635Z,15.30
2023-02-08T11:52:06.869Z,15.64
2023-02-08T11:57:15.963Z,14.88
2023-02-08T12:02:36.933Z,15.30
2023-02-08T12:07:50.328Z,15.29
2023-02-08T12:13:22.719Z,15.00
2023-02-08T12:18:40.355Z,14.50
2023-02-08T12:23:50.249Z,14.65
2023-02-08T12:29:16.226Z,14.77
2023-02-08T12:34:26.686Z,14.85
2023-02-08T12:39:58.051Z,13.79
2023-02-08T12:45:32.696Z,12.14
2023-02-08T12:50:43.018Z,11.74
2023-02-08T12:55:49.883Z,11.51
2023-02-08T13:00:54.512Z,11.37
2023-02-08T13:06:02.421Z,11.35
2023-02-08T13:11:19.831Z,11.73
2023-02-08T13:16:26.217Z,12.14
2023-02-08T13:21:37.847Z,11.92
2023-02-08T13:26:41.822Z,11.61
2023-02-08T13:31:49.560Z,11.14
2023-02-08T13:36:57.340Z,11.70
2023-02-08T13:42:01.259Z,11.81
2023-02-08T13:47:05.863Z,11.78
2023-02-08T13:52:10.456Z,11.75
2023-02-08T13:57:51.243Z,10.87
2023-02-08T14:03:01.179Z,10.19
2023-02-08T14:08:08.276Z,9.48
2023-02-08T14:13:29.690Z,9.98
2023-02-08T14:18:32.583Z,10.31
2023-02-08T14:23:40.679Z,10.62
2023-02-08T14:28:48.759Z,10.79
2023-02-08T14:33:55.004Z,10.68
2023-02-08T14:39:26.181Z,10.46
2023-02-08T14:44:59.937Z,10.16
2023-02-08T14:50:06.695Z,9.79
2023-02-08T14:55:17.485Z,9.37
2023-02-08T15:00:25.426Z,8.93
2023-02-08T15:05:30.160Z,9.24
2023-02-08T15:10:35.144Z,8.88
2023-02-08T15:15:41.734Z,8.70
2023-02-08T15:20:45.194Z,8.59
2023-02-08T15:26:00.305Z,8.20
2023-02-08T15:31:06.127Z,8.20
2023-02-08T15:36:16.261Z,8.01
2023-02-08T15:41:28.244Z,7.85
2023-02-08T15:46:32.451Z,7.85
2023-02-08T15:51:35.373Z,7.38
2023-02-08T15:56:42.375Z,6.82
2023-02-08T16:01:47.769Z,6.51
2023-02-08T16:06:53.286Z,6.22
2023-02-08T16:12:00.340Z,5.82
2023-02-08T16:17:04.288Z,5.40
2023-02-08T16:22:26.539Z,5.02
2023-02-08T16:27:33.728Z,4.75
2023-02-08T16:32:39.666Z,4.57
2023-02-08T16:37:43.296Z,4.37
2023-02-08T16:42:47.533Z,4.11
2023-02-08T16:47:53.119Z,3.86
2023-02-08T16:53:00.205Z,3.92
2023-02-08T16:58:04.398Z,3.83
2023-02-08T17:03:07.205Z,3.66
2023-02-08T17:08:20.796Z,3.61
2023-02-08T17:13:27.004Z,3.58
2023-02-08T17:18:32.705Z,3.53
2023-02-08T17:23:38.008Z,3.46
2023-02-08T17:28:42.893Z,3.37
2023-02-08T17:33:45.987Z,3.26
2023-02-08T17:38:49.046Z,3.28
2023-02-08T17:43:54.830Z,3.28
2023-02-08T17:49:00.532Z,3.21
2023-02-08T17:54:04.854Z,3.07
2023-02-08T17:59:09.060Z,2.96
2023-02-08T18:04:13.264Z,2.81
2023-02-08T18:09:16.045Z,2.74
2023-02-08T18:14:20.328Z,2.68
2023-02-08T18:19:23.382Z,2.59
2023-02-08T18:24:26.191Z,2.57
2023-02-08T18:29:30.439Z,2.52
2023-02-08T18:39:36.445Z,2.22
2023-02-08T18:44:40.783Z,2.07
2023-02-08T18:49:43.655Z,1.97
2023-02-08T18:54:46.516Z,1.87
2023-02-08T18:59:50.847Z,1.78
2023-02-08T19:04:53.579Z,1.71
2023-02-08T19:09:56.378Z,1.65
2023-02-08T19:15:00.748Z,1.49
2023-02-08T19:20:03.978Z,1.65
2023-02-08T19:25:07.647Z,1.49
2023-02-08T19:30:15.594Z,1.55
2023-02-08T19:35:19.610Z,1.50
2023-02-08T19:40:24.187Z,1.44
2023-02-08T19:45:28.399Z,1.40
2023-02-08T19:50:31.211Z,1.36
2023-02-08T19:55:33.984Z,1.20
2023-02-08T20:00:38.115Z,1.11
2023-02-08T20:05:41.039Z,1.09
2023-02-08T20:10:45.811Z,1.12
2023-02-08T20:15:50.516Z,0.96
2023-02-08T20:21:01.098Z,0.97
2023-02-08T20:26:06.409Z,0.98
2023-02-08T20:31:12.541Z,0.88
2023-02-08T20:36:17.557Z,0.88
2023-02-08T20:41:21.619Z,0.89
2023-02-08T20:46:28.067Z,0.86
2023-02-08T20:51:31.352Z,0.92
2023-02-08T20:56:36.092Z,0.86
2023-02-08T21:01:40.298Z,0.88
2023-02-08T21:06:45.811Z,0.80
2023-02-08T21:11:48.997Z,0.75
2023-02-08T21:16:56.189Z,0.72
2023-02-08T21:22:01.338Z,0.67
2023-02-08T21:27:04.116Z,0.58
2023-02-08T21:32:08.307Z,0.56
2023-02-08T21:37:11.120Z,0.61
2023-02-08T21:42:13.926Z,0.54
2023-02-08T21:47:17.968Z,0.49
2023-02-08T21:52:38.397Z,0.36
2023-02-08T21:57:41.083Z,0.22
2023-02-08T22:02:45.182Z,0.19
2023-02-08T22:07:50.257Z,0.07
2023-02-08T22:12:54.989Z,-0.01
2023-02-08T22:18:03.336Z,-0.01
2023-02-08T22:23:06.272Z,-0.10
2023-02-08T22:28:09.000Z,-0.27
2023-02-08T22:33:13.081Z,-0.27
2023-02-08T22:38:15.800Z,-0.20
2023-02-08T22:43:18.577Z,-0.16
2023-02-08T22:48:22.660Z,-0.14
2023-02-08T22:53:25.499Z,-0.24
2023-02-08T22:58:28.389Z,-0.24
2023-02-08T23:03:32.939Z,-0.35
2023-02-08T23:08:36.586Z,-0.38
2023-02-08T23:13:39.766Z,-0.47
2023-02-08T23:18:44.377Z,-0.48
2023-02-08T23:23:49.324Z,-0.52
2023-02-08T23:28:53.198Z,-0.54
2023-02-08T23:33:57.314Z,-0.55
2023-02-08T23:39:01.470Z,-0.59
2023-02-08T23:44:04.712Z,-0.72
2023-02-08T23:49:08.858Z,-0.80
2023-02-08T23:54:11.590Z,-0.82
2023-02-08T23:59:14.383Z,-0.93
